Time;durP1;ratioP1;P1;durP2;ratioP2;P2;SDS_P1;SDS_P2;PMS_P1;PMS_P2;Temp;Humidity;BMP_temperature;BMP_pressure;BME280_temperature;BME280_humidity;BME280_pressure;Samples;Min_cycle;Max_cycle;Signal;HPM_P1;HPM_P2
2021/03/11 00:00:44;;;;;;;9.38;4.10;;;;;;;-14.87;37.19;101081.78;5049536;28;20033;-63
2021/03/11 00:03:10;;;;;;;9.57;4.38;;;;;;;-15.17;37.38;101024.78;5050630;28;20075;-63
2021/03/11 00:05:37;;;;;;;10.90;3.95;;;;;;;-14.75;37.59;101090.81;5050287;28;20037;-58
2021/03/11 00:08:03;;;;;;;14.35;4.30;;;;;;;-14.94;37.89;101063.44;5015612;28;20099;-57
2021/03/11 00:10:29;;;;;;;10.73;4.20;;;;;;;-14.92;37.80;101079.81;5028169;28;20055;-63
2021/03/11 00:12:55;;;;;;;9.32;3.70;;;;;;;-15.13;38.15;101042.09;5013534;28;20040;-63
2021/03/11 00:15:22;;;;;;;13.88;4.50;;;;;;;-14.82;37.97;101092.25;5030333;28;20021;-63
2021/03/11 00:17:47;;;;;;;12.55;3.70;;;;;;;-15.00;38.19;101069.19;5019400;28;20044;-64
2021/03/11 00:20:20;;;;;;;9.45;3.90;;;;;;;-14.90;38.54;101091.03;5025214;28;20079;-62
2021/03/11 00:22:46;;;;;;;14.43;4.32;;;;;;;-14.86;38.38;101088.66;5024931;28;20448;-61
2021/03/11 00:25:13;;;;;;;10.50;4.40;;;;;;;-14.86;38.17;101093.81;5021537;28;20038;-61
2021/03/11 00:27:39;;;;;;;12.70;4.93;;;;;;;-14.91;38.08;101089.28;5030362;28;20088;-62
2021/03/11 00:30:07;;;;;;;11.43;4.70;;;;;;;-14.79;38.24;101096.63;5017737;28;20035;-62
2021/03/11 00:32:34;;;;;;;14.18;4.82;;;;;;;-14.79;37.89;101091.50;5027373;28;20041;-61
2021/03/11 00:35:00;;;;;;;8.98;3.90;;;;;;;-14.80;38.06;101094.88;5030363;28;20056;-64
2021/03/11 00:37:26;;;;;;;11.65;4.65;;;;;;;-14.88;38.25;101090.31;5021377;28;20038;-64
2021/03/11 00:39:52;;;;;;;9.25;4.63;;;;;;;-14.97;38.25;101076.16;5022213;28;20042;-62
2021/03/11 00:42:17;;;;;;;14.32;4.80;;;;;;;-14.80;38.11;101097.47;5029612;28;20041;-58
2021/03/11 00:44:43;;;;;;;10.00;3.88;;;;;;;-14.82;38.31;101114.50;5013561;28;20038;-61
2021/03/11 00:47:08;;;;;;;12.90;5.10;;;;;;;-14.92;38.44;101090.97;5030294;28;20048;-61
2021/03/11 00:49:34;;;;;;;8.90;4.20;;;;;;;-14.89;38.25;101095.34;5023222;28;20045;-60
2021/03/11 00:52:01;;;;;;;12.50;4.38;;;;;;;-14.86;38.42;101104.09;5023385;28;20063;-63
2021/03/11 00:54:28;;;;;;;10.63;4.38;;;;;;;-14.88;38.23;101105.72;5028358;28;20056;-60
2021/03/11 00:56:53;;;;;;;16.02;4.78;;;;;;;-14.93;38.13;101104.66;5025101;28;20437;-59
2021/03/11 00:59:19;;;;;;;11.20;4.68;;;;;;;-14.91;38.25;101110.72;5028510;28;20410;-63
2021/03/11 01:01:44;;;;;;;11.05;4.65;;;;;;;-14.92;38.13;101101.25;5035321;28;20037;-59
2021/03/11 01:04:11;;;;;;;12.80;4.93;;;;;;;-15.42;38.29;101030.56;5028424;28;20040;-61
2021/03/11 01:06:37;;;;;;;8.70;3.78;;;;;;;-14.97;38.30;101105.31;5035267;28;20060;-62
2021/03/11 01:09:03;;;;;;;8.60;3.85;;;;;;;-14.99;38.05;101111.22;5044677;28;20041;-58
2021/03/11 01:11:28;;;;;;;10.23;4.05;;;;;;;-15.03;38.40;101103.38;5037981;28;20037;-60
2021/03/11 01:14:01;;;;;;;10.35;3.67;;;;;;;-15.05;38.48;101102.41;5042435;28;20495;-60
2021/03/11 01:16:26;;;;;;;11.68;4.25;;;;;;;-15.07;38.58;101110.84;5049188;28;20033;-57
2021/03/11 01:18:52;;;;;;;10.18;3.92;;;;;;;-15.08;38.48;101111.69;5032378;28;20568;-61
2021/03/11 01:21:18;;;;;;;9.25;4.43;;;;;;;-15.10;38.23;101103.88;5049808;28;20044;-59
2021/03/11 01:23:43;;;;;;;11.25;4.13;;;;;;;-15.11;38.80;101106.41;5038779;28;20040;-63
2021/03/11 01:26:08;;;;;;;10.43;3.97;;;;;;;-15.11;38.60;101111.53;5048115;28;20048;-63
2021/03/11 01:28:34;;;;;;;11.10;4.13;;;;;;;-15.10;38.72;101105.59;5048774;28;20041;-61
2021/03/11 01:30:59;;;;;;;9.30;4.13;;;;;;;-15.26;38.80;101091.19;5034402;28;20477;-62
2021/03/11 01:33:25;;;;;;;8.07;3.80;;;;;;;-15.35;38.81;101059.13;5041290;28;20056;-62
2021/03/11 01:35:50;;;;;;;8.73;4.25;;;;;;;-15.20;38.91;101087.19;5022800;28;20041;-58
2021/03/11 01:38:16;;;;;;;7.53;3.88;;;;;;;-15.10;39.08;101123.56;5061556;28;20480;-63
2021/03/11 01:40:42;;;;;;;15.77;4.18;;;;;;;-15.25;38.71;101086.09;5050741;28;20037;-62
2021/03/11 01:43:07;;;;;;;11.88;4.55;;;;;;;-15.09;38.85;101107.34;5043859;28;20034;-63
2021/03/11 01:45:33;;;;;;;9.02;4.00;;;;;;;-15.09;38.85;101120.19;5038327;28;20051;-56
2021/03/11 01:47:59;;;;;;;11.70;4.60;;;;;;;-15.11;38.95;101107.25;5049555;28;20052;-60
2021/03/11 01:50:24;;;;;;;8.93;4.10;;;;;;;-15.18;38.68;101092.41;5049353;28;20033;-60
2021/03/11 01:52:51;;;;;;;10.25;3.95;;;;;;;-15.07;38.83;101111.75;5032700;28;20064;-59
2021/03/11 01:55:18;;;;;;;10.45;4.35;;;;;;;-15.09;38.97;101107.34;5048764;28;20048;-61
2021/03/11 01:57:46;;;;;;;13.10;4.60;;;;;;;-15.06;39.05;101120.31;5048478;28;20045;-62
2021/03/11 02:00:12;;;;;;;12.30;3.95;;;;;;;-15.11;38.90;101111.53;5049104;28;20127;-59
2021/03/11 02:02:45;;;;;;;13.82;4.70;;;;;;;-15.08;39.16;101111.69;5049331;28;20058;-61
2021/03/11 02:05:13;;;;;;;9.20;4.13;;;;;;;-15.10;39.03;101114.16;5043714;28;20455;-60
2021/03/11 02:07:39;;;;;;;10.82;4.18;;;;;;;-15.94;38.99;100960.66;5038676;28;20057;-62
2021/03/11 02:10:07;;;;;;;9.73;4.60;;;;;;;-15.08;39.35;101116.81;5042411;28;20187;-60
2021/03/11 02:12:35;;;;;;;14.55;4.18;;;;;;;-15.08;39.22;101111.69;5048616;28;20140;-55
2021/03/11 02:15:13;;;;;;;10.05;4.00;;;;;;;-15.07;39.06;101119.47;5034165;28;20385;-63
2021/03/11 02:17:48;;;;;;;9.80;4.75;;;;;;;-15.07;39.52;101116.91;5047752;28;20063;-61
2021/03/11 02:20:37;;;;;;;16.67;5.13;;;;;;;-15.07;38.95;101128.84;5048573;28;20517;-62
2021/03/11 02:23:30;;;;;;;15.48;5.43;;;;;;;-15.09;39.35;101131.34;5030846;28;20036;-61
2021/03/11 02:26:10;;;;;;;27.65;7.35;;;;;;;-15.16;39.35;101125.06;5048605;28;20300;-60
2021/03/11 02:28:47;;;;;;;24.08;7.38;;;;;;;-15.16;39.33;101140.47;5043438;28;20069;-61
2021/03/11 02:31:13;;;;;;;24.73;7.47;;;;;;;-15.17;39.02;101148.09;5050493;28;20032;-61
2021/03/11 02:33:40;;;;;;;24.23;6.63;;;;;;;-15.36;39.50;101105.31;5042250;28;20164;-61
2021/03/11 02:36:06;;;;;;;23.13;6.25;;;;;;;-15.27;39.08;101136.53;5046053;28;20043;-61
2021/03/11 02:38:33;;;;;;;21.67;7.10;;;;;;;-15.39;39.30;101121.44;5041440;28;20067;-60
2021/03/11 02:41:01;;;;;;;20.65;6.25;;;;;;;-15.38;39.48;101117.19;5037071;28;20139;-61
2021/03/11 02:43:28;;;;;;;21.90;6.32;;;;;;;-15.35;39.52;101127.59;5052412;28;20451;-55
2021/03/11 02:45:55;;;;;;;18.70;6.15;;;;;;;-15.40;39.42;101118.81;5040252;28;20033;-62
2021/03/11 02:48:21;;;;;;;14.77;5.80;;;;;;;-15.69;39.78;101080.72;5047215;28;20036;-60
2021/03/11 02:50:47;;;;;;;17.30;5.78;;;;;;;-15.44;39.71;101146.03;5034429;28;20032;-59
2021/03/11 02:53:13;;;;;;;15.35;5.07;;;;;;;-15.48;40.15;101127.03;5045839;28;20512;-57
2021/03/11 02:55:41;;;;;;;14.38;5.50;;;;;;;-15.63;39.95;101108.38;5048131;28;20032;-61
2021/03/11 02:58:12;;;;;;;15.27;4.68;;;;;;;-15.53;40.45;101132.78;5051924;28;20037;-60
2021/03/11 03:00:39;;;;;;;15.27;4.80;;;;;;;-15.57;40.24;101129.19;5050084;28;20045;-61
2021/03/11 03:03:08;;;;;;;12.32;5.38;;;;;;;-15.66;40.14;101103.09;5037007;28;20112;-64
2021/03/11 03:05:34;;;;;;;10.18;4.47;;;;;;;-15.53;40.37;101130.22;5051570;28;20031;-62
2021/03/11 03:08:00;;;;;;;10.05;4.00;;;;;;;-15.67;40.36;101099.63;5051656;28;20073;-62
2021/03/11 03:10:28;;;;;;;10.18;4.93;;;;;;;-15.66;40.51;101114.22;5051383;28;20045;-59
2021/03/11 03:12:56;;;;;;;10.00;4.03;;;;;;;-15.61;40.81;101130.72;5035108;28;20373;-62
2021/03/11 03:15:22;;;;;;;12.55;5.15;;;;;;;-15.56;40.49;101114.63;5051703;28;20036;-62
2021/03/11 03:17:49;;;;;;;11.40;4.28;;;;;;;-15.65;40.69;101112.56;5051537;28;20041;-61
2021/03/11 03:20:17;;;;;;;11.43;4.50;;;;;;;-15.53;40.38;101131.06;5051482;28;20029;-63
2021/03/11 03:22:44;;;;;;;14.00;5.13;;;;;;;-15.52;40.24;101140.53;5051529;28;20125;-62
2021/03/11 03:25:11;;;;;;;10.23;4.30;;;;;;;-15.49;40.43;101140.69;5046310;28;20033;-61
2021/03/11 03:27:37;;;;;;;12.82;4.72;;;;;;;-15.54;40.30;101137.03;5040576;28;20147;-61
2021/03/11 03:30:10;;;;;;;11.13;4.47;;;;;;;-15.52;40.62;101122.56;5038856;28;20103;-60
2021/03/11 03:32:36;;;;;;;11.00;5.05;;;;;;;-15.52;40.57;101122.56;5050464;28;20033;-61
2021/03/11 03:35:03;;;;;;;13.48;4.85;;;;;;;-15.56;40.57;101115.53;5047183;28;20519;-62
2021/03/11 03:37:29;;;;;;;13.50;4.15;;;;;;;-15.52;40.23;101125.13;5048169;28;20037;-61
2021/03/11 03:39:54;;;;;;;13.95;5.18;;;;;;;-15.52;40.12;101122.56;5050750;28;20037;-63
2021/03/11 03:42:20;;;;;;;11.55;4.57;;;;;;;-15.99;40.39;101031.44;5051130;28;20047;-63
2021/03/11 03:44:47;;;;;;;12.35;4.57;;;;;;;-15.67;40.79;101091.03;5033112;28;20036;-62
2021/03/11 03:47:15;;;;;;;9.73;4.00;;;;;;;-15.54;40.37;101116.47;5051227;28;20045;-62
2021/03/11 03:49:41;;;;;;;13.10;4.57;;;;;;;-15.59;40.18;101103.41;5048484;28;20059;-61
2021/03/11 03:52:07;;;;;;;11.90;4.15;;;;;;;-15.61;40.34;101107.59;5051311;28;20489;-61
2021/03/11 03:54:39;;;;;;;13.13;4.63;;;;;;;-15.54;40.24;101111.34;5050257;28;20037;-59
2021/03/11 03:57:12;;;;;;;14.38;5.07;;;;;;;-15.67;40.10;101089.34;5050721;28;20033;-62
2021/03/11 03:59:39;;;;;;;11.05;4.68;;;;;;;-15.51;40.01;101114.06;5050406;28;20128;-63
2021/03/11 04:02:05;;;;;;;11.75;4.78;;;;;;;-15.50;40.11;101120.09;5050984;28;20040;-60
2021/03/11 04:04:39;;;;;;;12.32;4.80;;;;;;;-15.47;40.44;101117.66;5051017;28;20131;-63
2021/03/11 04:07:08;;;;;;;14.38;5.68;;;;;;;-15.40;39.91;101129.94;5045692;28;20477;-63
2021/03/11 04:09:35;;;;;;;13.73;5.13;;;;;;;-15.39;40.03;101131.72;5039877;28;20141;-62
2021/03/11 04:12:01;;;;;;;11.98;5.03;;;;;;;-15.35;39.88;101140.44;5051073;28;20041;-61
2021/03/11 04:14:28;;;;;;;10.82;4.97;;;;;;;-15.47;40.01;101103.09;5033961;28;20331;-62
2021/03/11 04:16:54;;;;;;;13.60;6.07;;;;;;;-15.27;40.11;101128.81;5043567;28;20056;-64
2021/03/11 04:19:22;;;;;;;21.38;6.85;;;;;;;-15.27;40.16;101138.22;5048194;28;20036;-64
2021/03/11 04:21:48;;;;;;;15.93;6.15;;;;;;;-15.22;40.10;101129.91;5050018;28;20037;-64
2021/03/11 04:24:15;;;;;;;15.38;5.97;;;;;;;-15.16;39.90;101109.66;5050335;28;20032;-63
2021/03/11 04:26:42;;;;;;;18.30;6.05;;;;;;;-14.98;40.21;101130.94;5049890;28;20044;-57
2021/03/11 04:29:08;;;;;;;12.40;5.35;;;;;;;-15.06;39.72;101102.34;5044915;28;20033;-62
2021/03/11 04:31:34;;;;;;;13.75;5.97;;;;;;;-15.00;39.78;101102.59;5039624;28;20055;-62
2021/03/11 04:34:00;;;;;;;13.60;5.22;;;;;;;-14.70;39.53;101139.88;5050469;28;20223;-62
2021/03/11 04:36:27;;;;;;;15.65;6.15;;;;;;;-14.53;39.44;101150.84;5044235;28;20413;-62
2021/03/11 04:38:54;;;;;;;15.75;6.20;;;;;;;-13.63;38.40;101061.78;5033387;28;20036;-61
2021/03/11 04:41:21;;;;;;;11.60;4.80;;;;;;;-11.46;34.92;101039.63;5050177;28;20086;-60
2021/03/11 04:43:47;;;;;;;10.70;5.35;;;;;;;-8.96;31.97;101094.88;5038954;28;20077;-61
2021/03/11 04:46:14;;;;;;;9.75;4.95;;;;;;;-7.69;30.06;101117.84;5041637;28;20037;-61
2021/03/11 04:48:41;;;;;;;12.18;5.13;;;;;;;-8.06;30.16;101132.84;5048899;28;20068;-61
2021/03/11 04:51:07;;;;;;;10.07;5.03;;;;;;;-8.82;30.53;101114.19;5049725;28;20029;-60
2021/03/11 04:53:34;;;;;;;11.77;4.97;;;;;;;-9.35;31.67;101135.56;5049066;28;20067;-57
2021/03/11 04:56:01;;;;;;;13.13;5.38;;;;;;;-9.72;32.37;101143.38;5048946;28;20068;-59
2021/03/11 04:58:29;;;;;;;20.20;6.75;;;;;;;-8.73;31.58;101147.25;5047690;28;20062;-58
2021/03/11 05:00:57;;;;;;;14.85;6.30;;;;;;;-6.52;29.31;101128.00;5033021;28;20417;-60
2021/03/11 05:03:23;;;;;;;14.13;7.40;;;;;;;-4.12;26.53;101127.66;5049999;28;20040;-58
2021/03/11 05:05:49;;;;;;;22.80;7.50;;;;;;;-2.23;24.02;101110.53;5038623;28;20033;-62
2021/03/11 05:08:14;;;;;;;16.30;7.00;;;;;;;-0.39;22.50;101106.81;5043537;28;20066;-61
2021/03/11 05:10:40;;;;;;;15.77;7.07;;;;;;;1.04;21.26;101100.88;5051075;28;20033;-64
2021/03/11 05:13:06;;;;;;;18.13;8.00;;;;;;;2.47;20.91;101110.81;5040852;28;20024;-63
2021/03/11 05:15:32;;;;;;;17.50;7.88;;;;;;;3.52;19.49;101109.63;5049365;28;20515;-62
2021/03/11 05:17:58;;;;;;;20.88;7.57;;;;;;;4.65;18.43;101113.03;5036644;28;20033;-61
2021/03/11 05:20:25;;;;;;;18.85;8.07;;;;;;;5.48;17.75;101106.44;5045388;28;20179;-59
2021/03/11 05:22:51;;;;;;;14.65;8.25;;;;;;;6.48;16.79;101119.31;5047371;28;20029;-61
2021/03/11 05:25:17;;;;;;;15.30;7.63;;;;;;;7.09;16.25;101109.53;5047102;28;20036;-63
2021/03/11 05:27:43;;;;;;;15.48;8.25;;;;;;;7.97;16.01;101109.88;5047460;28;20083;-63
2021/03/11 05:30:11;;;;;;;20.52;8.18;;;;;;;8.70;14.79;101097.38;5030222;28;20068;-61
2021/03/11 05:32:38;;;;;;;14.73;8.57;;;;;;;9.48;14.42;101104.81;5048665;28;20040;-61
2021/03/11 05:35:05;;;;;;;16.90;8.80;;;;;;;10.06;13.99;101097.06;5044685;28;20037;-61
2021/03/11 05:37:31;;;;;;;20.65;9.00;;;;;;;10.54;13.30;101097.00;5038389;28;20045;-62
2021/03/11 05:39:58;;;;;;;16.35;9.07;;;;;;;11.05;13.21;101083.16;5048959;28;20097;-63
2021/03/11 05:42:24;;;;;;;16.13;8.90;;;;;;;11.62;12.79;101097.47;5035399;28;20511;-64
2021/03/11 05:44:51;;;;;;;17.13;9.50;;;;;;;12.08;11.76;101105.28;5047801;28;20036;-62
2021/03/11 05:47:18;;;;;;;12.88;8.98;;;;;;;12.52;11.34;101105.94;5046486;28;20024;-61
2021/03/11 05:49:44;;;;;;;16.42;8.77;;;;;;;13.11;10.66;101116.19;5048012;28;20089;-62
2021/03/11 05:52:10;;;;;;;13.98;8.50;;;;;;;13.42;10.34;101064.72;5047596;28;20033;-61
2021/03/11 05:54:37;;;;;;;12.20;8.50;;;;;;;14.30;10.29;101113.91;5040587;28;20048;-62
2021/03/11 05:57:04;;;;;;;13.90;8.15;;;;;;;14.79;9.94;101114.69;5049619;28;20057;-62
2021/03/11 05:59:29;;;;;;;12.73;8.77;;;;;;;15.27;9.66;101121.72;5049354;28;20090;-69
2021/03/11 06:01:57;;;;;;;16.25;9.10;;;;;;;15.67;8.85;101120.34;5048518;28;20029;-66
2021/03/11 06:04:22;;;;;;;16.27;8.90;;;;;;;16.12;8.59;101115.84;5044626;28;20519;-64
2021/03/11 06:06:49;;;;;;;14.73;9.13;;;;;;;16.48;8.54;101113.69;5049857;28;20053;-65
2021/03/11 06:09:17;;;;;;;15.68;8.98;;;;;;;16.72;7.26;101109.88;5048161;28;20565;-62
2021/03/11 06:11:44;;;;;;;13.40;9.02;;;;;;;17.23;8.05;101113.63;5051271;28;20048;-61
2021/03/11 06:14:12;;;;;;;15.32;8.52;;;;;;;17.61;7.13;101108.47;5051978;28;20127;-62
2021/03/11 06:16:41;;;;;;;13.15;8.35;;;;;;;18.02;7.16;101108.44;5051482;28;20511;-61
2021/03/11 06:19:08;;;;;;;13.15;8.23;;;;;;;18.26;6.94;101093.59;5037664;28;20064;-62
2021/03/11 06:21:34;;;;;;;13.52;8.32;;;;;;;18.41;6.75;101092.19;5043265;28;20045;-56
2021/03/11 06:24:00;;;;;;;12.57;8.60;;;;;;;18.89;6.79;101089.50;5045230;28;20033;-62
2021/03/11 06:26:25;;;;;;;14.25;9.43;;;;;;;19.46;6.43;101107.59;5050813;28;20033;-63
2021/03/11 06:28:52;;;;;;;13.93;8.38;;;;;;;19.70;6.32;101049.97;5051549;28;20468;-64
2021/03/11 06:31:20;;;;;;;13.43;8.73;;;;;;;20.21;5.32;101101.97;5051905;28;20039;-62
2021/03/11 06:33:48;;;;;;;12.98;9.10;;;;;;;20.63;5.86;101105.03;5045322;28;20045;-64
2021/03/11 06:36:14;;;;;;;11.35;8.65;;;;;;;21.07;5.59;101113.19;5050361;28;20532;-64
2021/03/11 06:38:40;;;;;;;14.73;9.10;;;;;;;21.39;5.48;101099.00;5046659;28;20037;-65
2021/03/11 06:41:05;;;;;;;11.98;8.40;;;;;;;21.74;5.58;101113.50;5048817;28;20044;-63
2021/03/11 06:43:31;;;;;;;15.98;9.05;;;;;;;21.80;5.13;101102.75;5048514;28;20049;-64
2021/03/11 06:46:07;;;;;;;15.35;9.75;;;;;;;22.22;5.11;101111.00;5050570;28;20492;-62
2021/03/11 06:48:33;;;;;;;13.20;9.57;;;;;;;22.32;5.29;101106.25;5050332;28;20037;-60
2021/03/11 06:51:00;;;;;;;13.98;9.35;;;;;;;22.22;5.24;101051.00;5047654;28;20033;-61
2021/03/11 06:53:27;;;;;;;14.73;10.13;;;;;;;22.80;5.31;101102.84;5032974;28;20085;-63
2021/03/11 06:55:53;;;;;;;15.38;9.80;;;;;;;23.03;5.47;101096.63;5050290;28;20031;-62
2021/03/11 06:58:19;;;;;;;15.27;9.05;;;;;;;23.27;4.96;101109.38;5050504;28;20063;-60
2021/03/11 07:00:47;;;;;;;13.10;8.77;;;;;;;23.09;4.94;101109.59;5049445;28;20036;-64
2021/03/11 07:03:12;;;;;;;17.90;9.52;;;;;;;23.12;5.25;101108.38;5049598;28;20041;-60
2021/03/11 07:05:40;;;;;;;15.55;9.98;;;;;;;23.41;4.79;101106.97;5049969;28;20057;-64
2021/03/11 07:08:16;;;;;;;14.55;9.50;;;;;;;23.71;3.76;101115.34;5051151;28;20061;-63
2021/03/11 07:10:44;;;;;;;15.48;9.73;;;;;;;23.77;4.27;101109.16;5049841;28;20055;-62
2021/03/11 07:13:10;;;;;;;14.40;9.05;;;;;;;23.92;4.61;101111.97;5036353;28;20024;-65
2021/03/11 07:15:37;;;;;;;13.82;9.27;;;;;;;24.01;4.53;101110.94;5050800;28;20032;-57
2021/03/11 07:18:07;;;;;;;16.20;9.65;;;;;;;24.02;4.00;101122.72;5051567;28;20036;-64
2021/03/11 07:20:34;;;;;;;16.10;9.88;;;;;;;24.05;4.17;101122.34;5050546;28;20025;-59
2021/03/11 07:23:06;;;;;;;13.07;9.52;;;;;;;24.20;3.72;101112.31;5041385;28;20111;-62
2021/03/11 07:25:39;;;;;;;15.30;9.95;;;;;;;24.71;3.76;101115.47;5051157;28;20102;-60
2021/03/11 07:28:07;;;;;;;15.85;9.57;;;;;;;24.61;4.15;101110.28;5050943;28;20070;-61
2021/03/11 07:30:51;;;;;;;16.30;10.15;;;;;;;25.35;4.15;101106.78;5049246;28;20033;-63
2021/03/11 07:33:19;;;;;;;15.43;10.43;;;;;;;24.85;3.64;101108.38;5049991;28;20480;-63
2021/03/11 07:35:47;;;;;;;17.02;10.00;;;;;;;24.33;3.50;101119.06;5050612;28;20500;-62
2021/03/11 07:38:16;;;;;;;17.77;10.68;;;;;;;23.62;3.89;101071.63;5037607;28;20045;-64
2021/03/11 07:40:45;;;;;;;18.52;9.82;;;;;;;23.16;3.94;101115.22;5029629;28;20174;-62
2021/03/11 07:43:11;;;;;;;17.30;10.80;;;;;;;22.52;3.81;101116.84;5037700;28;20043;-65
2021/03/11 07:45:37;;;;;;;18.10;9.88;;;;;;;22.13;4.19;101101.97;5050518;28;20124;-60
2021/03/11 07:48:04;;;;;;;16.75;9.10;;;;;;;21.80;3.71;101116.38;5033031;28;20500;-61
2021/03/11 07:50:30;;;;;;;16.38;9.65;;;;;;;21.54;4.00;101119.19;5050184;28;20067;-60
2021/03/11 07:52:58;;;;;;;19.02;9.25;;;;;;;21.45;3.94;101114.69;5050265;28;20548;-60
2021/03/11 07:55:29;;;;;;;13.95;8.82;;;;;;;20.99;4.29;101099.53;5049535;28;20143;-58
2021/03/11 07:57:57;;;;;;;14.43;8.73;;;;;;;20.37;4.21;101111.28;5049491;28;20866;-58
2021/03/11 08:00:27;;;;;;;12.98;8.77;;;;;;;18.80;4.36;101107.53;5032389;28;20593;-55
2021/03/11 08:03:00;;;;;;;15.73;8.20;;;;;;;16.43;5.40;101106.00;5027029;28;20053;-63
2021/03/11 08:05:30;;;;;;;13.00;8.00;;;;;;;13.39;6.09;101105.28;5042273;28;20405;-60
2021/03/11 08:08:25;;;;;;;15.30;8.43;;;;;;;10.57;7.59;101117.34;5048782;28;20080;-60
2021/03/11 08:11:01;;;;;;;18.45;8.75;;;;;;;7.65;9.27;101124.75;5034992;28;20047;-61
2021/03/11 08:13:38;;;;;;;15.05;8.15;;;;;;;4.76;10.33;101043.66;5043530;28;20147;-62
2021/03/11 08:16:09;;;;;;;15.38;7.65;;;;;;;3.56;11.64;101124.50;5050307;28;20068;-64
2021/03/11 08:18:34;;;;;;;14.13;7.95;;;;;;;2.19;12.61;101119.44;5046140;28;20068;-58
2021/03/11 08:21:23;;;;;;;16.88;7.75;;;;;;;1.18;13.07;101119.06;5049081;28;20028;-58
2021/03/11 08:23:49;;;;;;;19.58;8.00;;;;;;;0.35;13.12;101124.97;5031205;28;20087;-58
2021/03/11 08:26:37;;;;;;;16.42;7.65;;;;;;;-0.34;14.18;101120.81;5040659;28;20485;-59
2021/03/11 08:29:22;;;;;;;19.73;6.93;;;;;;;-0.98;14.94;101099.72;5045958;28;20052;-57
2021/03/11 08:31:49;;;;;;;15.63;6.38;;;;;;;-1.36;14.47;101106.28;5044167;28;20064;-55
2021/03/11 08:34:33;;;;;;;22.90;6.53;;;;;;;-1.54;16.07;101116.09;5041970;28;20388;-60
2021/03/11 08:37:19;;;;;;;20.27;6.10;;;;;;;-1.82;17.14;101116.31;5044137;28;20048;-58
2021/03/11 08:39:45;;;;;;;15.98;7.22;;;;;;;-1.94;15.89;101113.81;5041397;28;20047;-55
2021/03/11 08:42:41;;;;;;;14.80;6.22;;;;;;;-2.15;15.85;101113.09;5049602;28;20508;-55
2021/03/11 08:45:07;;;;;;;;;;;;;;;-2.23;17.33;101112.28;5041099;28;20036;-57
2021/03/11 08:47:33;;;;;;;10.77;5.70;;;;;;;-2.39;15.88;101106.28;5040185;28;20007;-63
2021/03/11 08:49:59;;;;;;;18.13;5.57;;;;;;;-2.46;16.25;101114.16;5036587;28;20136;-55
2021/03/11 08:52:40;;;;;;;10.57;5.60;;;;;;;-2.46;16.76;101111.53;5048344;28;20040;-56
2021/03/11 08:55:30;;;;;;;12.95;5.78;;;;;;;-2.66;17.83;101109.03;5022598;28;20114;-55
2021/03/11 08:57:58;;;;;;;18.67;5.80;;;;;;;-2.98;16.84;101096.06;5048701;28;20041;-53
2021/03/11 09:01:01;;;;;;;15.15;6.40;;;;;;;-2.97;18.00;101108.28;5042251;28;20028;-56
2021/03/11 09:03:38;;;;;;;16.65;5.40;;;;;;;-3.41;17.49;101042.94;5043893;28;20366;-61
2021/03/11 09:06:08;;;;;;;23.90;6.25;;;;;;;-3.19;17.39;101121.47;5048530;28;20037;-55
2021/03/11 09:08:36;;;;;;;11.75;5.03;;;;;;;-3.32;17.77;101124.13;5042184;28;20049;-59
2021/03/11 09:11:14;;;;;;;12.68;5.68;;;;;;;-3.36;18.14;101111.91;5045831;28;20404;-53
2021/03/11 09:13:41;;;;;;;10.25;5.45;;;;;;;-3.39;17.83;101114.53;5042579;28;20048;-58
2021/03/11 09:16:07;;;;;;;7.82;4.50;;;;;;;-3.41;17.72;101118.88;5046018;28;20044;-57
2021/03/11 09:18:34;;;;;;;16.23;5.15;;;;;;;-3.42;17.61;101116.28;5038927;28;20037;-71
2021/03/11 09:21:00;;;;;;;13.07;6.20;;;;;;;-3.38;18.05;101124.13;5048151;28;20036;-54
2021/03/11 09:23:42;;;;;;;12.80;5.63;;;;;;;-3.32;18.34;101115.38;5048126;28;20443;-56
2021/03/11 09:26:23;;;;;;;11.75;4.95;;;;;;;-3.50;18.52;101080.50;5045349;28;20037;-59
2021/03/11 09:28:49;;;;;;;18.13;6.50;;;;;;;-3.27;18.02;101097.06;5047139;28;20044;-54
2021/03/11 09:31:25;;;;;;;13.20;5.05;;;;;;;-2.94;18.84;101105.66;5047469;28;20044;-56
2021/03/11 09:33:51;;;;;;;16.30;5.25;;;;;;;-2.99;18.09;101083.84;5040120;28;20504;-54
2021/03/11 09:36:17;;;;;;;9.80;4.88;;;;;;;-2.77;18.21;101093.34;5042197;28;20546;-56
2021/03/11 09:38:43;;;;;;;12.57;4.68;;;;;;;-2.70;17.64;101094.19;5045137;28;20569;-58
2021/03/11 09:41:10;;;;;;;14.13;4.70;;;;;;;-3.00;18.17;101050.66;5043370;28;21226;-56
2021/03/11 09:43:41;;;;;;;13.70;4.60;;;;;;;-2.88;18.25;101103.88;5046394;28;20115;-53
2021/03/11 09:46:11;;;;;;;9.48;4.18;;;;;;;-2.89;18.24;101091.66;5042780;28;20052;-61
2021/03/11 09:48:53;;;;;;;13.43;5.05;;;;;;;-2.83;18.58;101105.63;5041816;28;20044;-53
2021/03/11 09:51:21;;;;;;;13.10;4.18;;;;;;;-2.86;18.21;101095.16;5038072;28;20044;-53
2021/03/11 09:54:01;;;;;;;12.10;4.30;;;;;;;-2.88;18.50;101090.78;5046203;28;20025;-57
2021/03/11 09:56:29;;;;;;;10.73;4.05;;;;;;;-2.95;18.36;101091.69;5039400;28;20040;-67
2021/03/11 09:58:59;;;;;;;10.82;3.97;;;;;;;-2.86;18.06;101090.78;5043291;28;20629;-53
2021/03/11 10:01:30;;;;;;;14.25;4.35;;;;;;;-2.88;18.25;101092.56;5040785;28;20044;-57
2021/03/11 10:03:57;;;;;;;9.80;3.60;;;;;;;-2.86;18.52;101100.38;5045940;28;20143;-52
2021/03/11 10:06:24;;;;;;;12.73;3.67;;;;;;;-2.88;18.76;101092.56;5044662;28;20053;-61
2021/03/11 10:08:58;;;;;;;6.93;3.28;;;;;;;-2.86;18.62;101082.94;5043016;28;20040;-59
2021/03/11 10:11:29;;;;;;;8.65;3.20;;;;;;;-2.94;18.50;101076.84;5046217;28;20049;-56
2021/03/11 10:14:01;;;;;;;8.65;3.88;;;;;;;-2.90;18.51;101070.69;5046540;28;20378;-55
2021/03/11 10:16:44;;;;;;;10.02;3.20;;;;;;;-2.82;18.74;101071.53;5028593;28;20541;-65
2021/03/11 10:19:36;;;;;;;12.68;3.17;;;;;;;-3.00;19.08;101063.75;5044604;28;20060;-55
2021/03/11 10:22:25;;;;;;;10.10;3.03;;;;;;;-3.05;19.69;101075.13;5047614;28;20071;-58
2021/03/11 10:24:52;;;;;;;6.38;2.88;;;;;;;-3.05;18.79;101062.03;5045295;28;20040;-64
2021/03/11 10:27:23;;;;;;;8.07;3.00;;;;;;;-3.07;18.85;101048.06;5048777;28;20039;-61
2021/03/11 10:30:01;;;;;;;6.00;2.35;;;;;;;-3.01;19.41;101041.94;5047744;28;20045;-64
2021/03/11 10:32:27;;;;;;;5.82;2.22;;;;;;;-3.03;18.80;101028.84;5044019;28;20032;-59
2021/03/11 10:34:52;;;;;;;8.40;2.60;;;;;;;-2.96;18.84;101037.53;5050907;28;20094;-58
2021/03/11 10:37:31;;;;;;;6.47;2.70;;;;;;;-2.95;19.30;101036.66;5048911;28;20519;-57
2021/03/11 10:40:03;;;;;;;7.35;2.35;;;;;;;-3.01;19.49;101027.97;5030664;28;20036;-62
2021/03/11 10:42:43;;;;;;;6.45;2.53;;;;;;;-3.07;19.84;101019.25;5048245;28;20188;-58
2021/03/11 10:45:11;;;;;;;4.65;2.30;;;;;;;-3.05;19.29;101030.59;5043253;28;20382;-54
2021/03/11 10:47:37;;;;;;;12.60;2.90;;;;;;;-2.92;19.46;101013.06;5033360;28;20043;-55
2021/03/11 10:50:16;;;;;;;8.18;2.88;;;;;;;-2.83;19.50;101024.34;5045489;28;20036;-53
2021/03/11 10:52:53;;;;;;;5.05;2.70;;;;;;;-2.90;19.44;101000.81;5045902;28;20481;-59
2021/03/11 10:55:32;;;;;;;6.10;2.70;;;;;;;-2.82;19.35;101013.88;5047977;28;20564;-56
2021/03/11 10:57:58;;;;;;;8.13;2.78;;;;;;;-2.80;19.17;101016.47;5050778;28;20060;-55
2021/03/11 11:00:28;;;;;;;7.45;2.80;;;;;;;-2.74;19.53;101012.06;5047632;28;20088;-57
2021/03/11 11:02:55;;;;;;;5.68;2.53;;;;;;;-2.83;19.10;100992.91;5046946;28;20589;-52
2021/03/11 11:05:22;;;;;;;7.55;2.60;;;;;;;-2.67;19.31;101001.53;5048925;28;20033;-60
2021/03/11 11:07:48;;;;;;;5.22;2.70;;;;;;;-2.63;19.20;100988.41;5048752;28;20106;-58
2021/03/11 11:10:16;;;;;;;7.20;2.28;;;;;;;-2.76;18.96;100987.63;5049485;28;20497;-59
2021/03/11 11:12:41;;;;;;;6.43;2.83;;;;;;;-3.00;19.56;100990.41;5046115;28;20037;-55
2021/03/11 11:15:07;;;;;;;5.75;3.15;;;;;;;-3.23;19.59;100986.16;5048952;28;20041;-57
2021/03/11 11:17:33;;;;;;;15.07;3.72;;;;;;;-3.68;19.70;100942.69;5051141;28;20033;-59
2021/03/11 11:19:58;;;;;;;6.88;3.38;;;;;;;-3.48;20.36;100989.75;5029183;28;20044;-58
2021/03/11 11:22:25;;;;;;;7.65;3.20;;;;;;;-3.40;20.01;100989.69;5051201;28;20036;-56
2021/03/11 11:24:51;;;;;;;10.60;3.00;;;;;;;-3.37;20.27;100965.25;5044160;28;20078;-59